createdAt,value
2023-03-29T00:01:10.897Z,17.77
2023-03-29T00:04:02.607Z,18.03
2023-03-29T00:06:33.069Z,18.60
2023-03-29T00:09:05.300Z,19.13
2023-03-29T00:11:34.421Z,17.20
2023-03-29T00:14:03.126Z,16.63
2023-03-29T00:16:32.180Z,16.33
2023-03-29T00:19:02.564Z,17.03
2023-03-29T00:21:31.017Z,18.03
2023-03-29T00:23:59.889Z,17.70
2023-03-29T00:26:28.399Z,17.43
2023-03-29T00:28:57.264Z,16.90
2023-03-29T00:31:26.221Z,16.73
2023-03-29T00:33:55.211Z,15.40
2023-03-29T00:36:25.109Z,17.30
2023-03-29T00:38:53.843Z,18.60
2023-03-29T00:41:22.649Z,18.67
2023-03-29T00:43:56.995Z,17.27
2023-03-29T00:46:26.551Z,16.67
2023-03-29T00:48:58.414Z,15.90
2023-03-29T00:51:32.048Z,15.20
2023-03-29T00:54:04.575Z,14.83
2023-03-29T00:56:37.051Z,16.10
2023-03-29T00:59:10.839Z,15.20
2023-03-29T01:01:46.759Z,16.33
2023-03-29T01:04:21.166Z,16.50
2023-03-29T01:06:58.408Z,16.20
2023-03-29T01:09:30.428Z,16.27
2023-03-29T01:12:02.652Z,15.67
2023-03-29T01:14:35.928Z,15.13
2023-03-29T01:17:05.701Z,17.27
2023-03-29T01:19:41.689Z,19.53
2023-03-29T01:22:26.002Z,18.23
2023-03-29T01:25:11.259Z,19.13
2023-03-29T01:27:54.396Z,18.70
2023-03-29T01:30:30.550Z,18.30
2023-03-29T01:33:03.852Z,17.23
2023-03-29T01:35:41.185Z,19.33
2023-03-29T01:38:14.520Z,19.37
2023-03-29T01:40:43.903Z,17.53
2023-03-29T01:43:23.108Z,19.63
2023-03-29T01:45:56.750Z,19.80
2023-03-29T01:48:29.073Z,19.83
2023-03-29T01:51:04.470Z,13.53
2023-03-29T01:53:39.547Z,13.80
2023-03-29T01:56:13.155Z,11.60
2023-03-29T01:58:46.205Z,14.67
2023-03-29T02:01:20.936Z,16.53
2023-03-29T02:03:54.654Z,16.37
2023-03-29T02:06:27.318Z,15.60
2023-03-29T02:08:56.776Z,15.57
2023-03-29T02:11:27.119Z,14.23
2023-03-29T02:13:57.214Z,12.53
2023-03-29T02:16:26.062Z,13.57
2023-03-29T02:18:57.718Z,12.10
2023-03-29T02:21:31.499Z,12.23
2023-03-29T02:24:02.089Z,13.27
2023-03-29T02:26:30.891Z,14.60
2023-03-29T02:29:00.767Z,16.10
2023-03-29T02:31:34.634Z,16.33
2023-03-29T02:34:08.805Z,16.13
2023-03-29T02:36:41.662Z,13.83
2023-03-29T02:39:13.699Z,13.07
2023-03-29T02:41:44.413Z,11.07
2023-03-29T02:44:18.308Z,11.43
2023-03-29T02:46:48.977Z,13.33
2023-03-29T02:49:17.891Z,14.77
2023-03-29T02:51:50.190Z,16.87
2023-03-29T02:54:21.810Z,16.90
2023-03-29T02:56:56.236Z,16.90
2023-03-29T02:59:26.305Z,15.50
2023-03-29T03:01:55.386Z,16.20
2023-03-29T03:04:25.468Z,16.70
2023-03-29T03:06:54.176Z,15.90
2023-03-29T03:09:22.596Z,15.90
2023-03-29T03:11:51.376Z,17.93
2023-03-29T03:14:22.811Z,16.70
2023-03-29T03:16:53.540Z,15.67
2023-03-29T03:19:22.314Z,16.20
2023-03-29T03:21:52.017Z,16.13
2023-03-29T03:24:20.463Z,15.43
2023-03-29T03:26:50.129Z,15.83
2023-03-29T03:29:20.289Z,14.20
2023-03-29T03:32:12.402Z,15.80
2023-03-29T03:34:52.565Z,14.97
2023-03-29T03:37:24.878Z,14.27
2023-03-29T03:39:53.601Z,12.33
2023-03-29T03:42:22.366Z,12.53
2023-03-29T03:44:51.076Z,11.60
2023-03-29T03:47:45.534Z,13.57
2023-03-29T03:50:25.576Z,13.07
2023-03-29T03:52:54.326Z,15.10
2023-03-29T03:55:23.941Z,12.83
2023-03-29T03:58:08.458Z,11.10
2023-03-29T04:00:36.985Z,11.67
2023-03-29T04:03:24.142Z,12.87
2023-03-29T04:05:52.725Z,12.50
2023-03-29T04:08:23.569Z,14.80
2023-03-29T04:11:14.355Z,12.63
2023-03-29T04:13:44.501Z,14.17
2023-03-29T04:16:42.554Z,13.83
2023-03-29T04:19:38.195Z,14.73
2023-03-29T04:22:06.723Z,14.33
2023-03-29T04:24:36.106Z,16.37
2023-03-29T04:27:24.934Z,17.40
2023-03-29T04:29:53.706Z,15.30
2023-03-29T04:32:34.314Z,15.60
2023-03-29T04:35:11.682Z,16.53
2023-03-29T04:37:41.868Z,16.33
2023-03-29T04:40:15.101Z,16.43
2023-03-29T04:43:06.637Z,17.03
2023-03-29T04:45:35.704Z,17.27
2023-03-29T04:48:12.356Z,17.33
2023-03-29T04:50:48.621Z,15.90
2023-03-29T04:53:20.093Z,16.87
2023-03-29T04:55:49.516Z,16.37
2023-03-29T04:58:32.039Z,16.27
2023-03-29T05:01:02.044Z,16.70
2023-03-29T05:03:36.437Z,17.50
2023-03-29T05:06:15.435Z,18.80
2023-03-29T05:08:44.613Z,18.33
2023-03-29T05:11:25.403Z,18.87
2023-03-29T05:13:55.657Z,16.90
2023-03-29T05:16:26.415Z,18.90
2023-03-29T05:18:57.163Z,19.17
2023-03-29T05:21:29.372Z,19.23
2023-03-29T05:24:00.369Z,18.63
2023-03-29T05:27:04.969Z,17.93
2023-03-29T05:29:36.668Z,18.40
2023-03-29T05:32:25.109Z,18.70
2023-03-29T05:34:53.602Z,17.90
2023-03-29T05:37:24.943Z,16.87
2023-03-29T05:40:05.583Z,19.57
2023-03-29T05:42:38.668Z,18.77
2023-03-29T05:45:11.607Z,15.70
2023-03-29T05:47:42.870Z,13.07
2023-03-29T05:50:11.834Z,13.40
2023-03-29T05:52:43.122Z,13.33
2023-03-29T05:55:11.909Z,13.67
2023-03-29T05:57:41.583Z,13.47
2023-03-29T06:00:20.322Z,14.73
2023-03-29T06:02:49.289Z,11.73
2023-03-29T06:05:17.992Z,10.13
2023-03-29T06:08:14.193Z,10.50
2023-03-29T06:11:02.485Z,10.13
2023-03-29T06:13:53.724Z,10.10
2023-03-29T06:16:22.518Z,11.23
2023-03-29T06:18:51.249Z,9.80
2023-03-29T06:21:19.637Z,10.80
2023-03-29T06:23:50.423Z,10.93
2023-03-29T06:26:20.067Z,8.50
2023-03-29T06:28:52.067Z,10.13
2023-03-29T06:31:21.155Z,9.43
2023-03-29T06:33:52.922Z,10.33
2023-03-29T06:36:54.974Z,10.90
2023-03-29T06:39:26.724Z,8.37
2023-03-29T06:42:22.546Z,9.40
2023-03-29T06:45:12.382Z,9.70
2023-03-29T06:47:41.049Z,9.70
2023-03-29T06:50:11.691Z,8.97
2023-03-29T06:52:53.830Z,10.20
2023-03-29T06:55:24.359Z,10.37
2023-03-29T06:57:54.470Z,9.17
2023-03-29T07:00:28.953Z,11.17
2023-03-29T07:03:13.300Z,9.73
2023-03-29T07:05:42.202Z,9.03
2023-03-29T07:08:16.784Z,10.43
2023-03-29T07:11:05.844Z,11.37
2023-03-29T07:13:34.258Z,9.77
2023-03-29T07:16:06.646Z,10.03
2023-03-29T07:18:55.461Z,9.30
2023-03-29T07:21:50.488Z,9.70
2023-03-29T07:24:20.837Z,9.17
2023-03-29T07:27:03.508Z,8.97
2023-03-29T07:29:34.162Z,8.17
2023-03-29T07:32:04.316Z,7.13
2023-03-29T07:34:46.271Z,7.87
2023-03-29T07:37:24.678Z,7.30
2023-03-29T07:39:54.217Z,8.23
2023-03-29T07:42:45.515Z,9.17
2023-03-29T07:45:20.406Z,8.43
2023-03-29T07:48:17.226Z,7.97
2023-03-29T07:50:53.048Z,9.13
2023-03-29T07:53:29.587Z,7.60
2023-03-29T07:56:00.302Z,8.07
2023-03-29T07:58:50.821Z,7.87
2023-03-29T08:01:20.797Z,8.00
2023-03-29T08:04:09.629Z,7.60
2023-03-29T08:06:56.587Z,7.70
2023-03-29T08:09:33.166Z,7.63
2023-03-29T08:12:01.669Z,7.83
2023-03-29T08:14:38.578Z,7.33
2023-03-29T08:17:23.793Z,8.50
2023-03-29T08:19:52.800Z,7.80
2023-03-29T08:22:25.669Z,7.80
2023-03-29T08:25:17.057Z,6.60
2023-03-29T08:27:49.736Z,7.50
2023-03-29T08:30:29.119Z,7.77
2023-03-29T08:32:58.601Z,7.43
2023-03-29T08:35:27.662Z,7.43
2023-03-29T08:38:14.893Z,7.30
2023-03-29T08:40:44.139Z,6.63
2023-03-29T08:43:43.672Z,6.83
2023-03-29T08:46:38.426Z,6.93
2023-03-29T08:49:23.888Z,7.33
2023-03-29T08:51:56.962Z,5.93
2023-03-29T08:54:27.432Z,7.10
2023-03-29T08:57:17.454Z,6.47
2023-03-29T08:59:53.426Z,5.13
2023-03-29T09:02:27.820Z,5.73
2023-03-29T09:05:08.717Z,5.13
2023-03-29T09:07:43.465Z,6.07
2023-03-29T09:10:17.266Z,4.73
2023-03-29T09:13:02.517Z,4.47
2023-03-29T09:15:38.236Z,4.90
2023-03-29T09:18:27.621Z,6.57
2023-03-29T09:21:03.127Z,6.20
2023-03-29T09:23:54.684Z,6.13
2023-03-29T09:26:50.370Z,5.67
2023-03-29T09:29:40.026Z,5.47
2023-03-29T09:32:20.179Z,5.90
2023-03-29T09:35:03.862Z,5.47
2023-03-29T09:37:35.616Z,5.73
2023-03-29T09:40:12.164Z,6.07
2023-03-29T09:42:53.191Z,6.50
2023-03-29T09:45:22.955Z,5.60
2023-03-29T09:47:58.738Z,4.80
2023-03-29T09:50:37.129Z,5.20
2023-03-29T09:53:09.679Z,5.03
2023-03-29T09:55:41.892Z,4.67
2023-03-29T09:58:31.245Z,5.83
2023-03-29T10:01:03.153Z,5.00
2023-03-29T10:03:34.920Z,5.40
2023-03-29T10:06:14.612Z,4.83
2023-03-29T10:08:51.814Z,4.90
2023-03-29T10:11:24.503Z,5.13
2023-03-29T10:13:57.224Z,4.63
2023-03-29T10:16:31.173Z,4.67
2023-03-29T10:18:59.752Z,4.47
2023-03-29T10:21:30.801Z,5.63
2023-03-29T10:24:00.484Z,5.77
2023-03-29T10:26:33.830Z,7.43
2023-03-29T10:29:06.190Z,5.03
2023-03-29T10:31:38.192Z,5.60
2023-03-29T10:34:08.996Z,6.37
2023-03-29T10:36:42.669Z,4.10
2023-03-29T10:39:14.626Z,4.60
2023-03-29T10:41:45.153Z,5.60
2023-03-29T10:44:30.382Z,3.93
2023-03-29T10:47:10.620Z,5.27
2023-03-29T10:49:44.618Z,4.47
2023-03-29T10:52:17.718Z,4.73
2023-03-29T10:54:47.263Z,5.13
2023-03-29T10:57:24.734Z,4.60
2023-03-29T10:59:58.991Z,5.57
2023-03-29T11:02:45.958Z,4.47
2023-03-29T11:05:24.524Z,4.80
2023-03-29T11:08:14.851Z,5.00
2023-03-29T11:10:53.185Z,4.33
2023-03-29T11:13:32.966Z,4.63
2023-03-29T11:16:11.539Z,4.27
2023-03-29T11:19:04.145Z,4.43
2023-03-29T11:21:40.636Z,4.93
2023-03-29T11:24:27.666Z,4.57
2023-03-29T11:27:09.362Z,4.43
2023-03-29T11:29:50.626Z,4.57
2023-03-29T11:32:30.242Z,5.60
2023-03-29T11:35:09.112Z,4.43
2023-03-29T11:37:43.248Z,4.80
2023-03-29T11:40:36.180Z,5.67
2023-03-29T11:43:10.261Z,5.23
2023-03-29T11:45:44.284Z,4.60
2023-03-29T11:48:19.835Z,4.07
2023-03-29T11:50:54.296Z,4.70
2023-03-29T11:53:29.273Z,5.27
2023-03-29T11:56:03.605Z,4.37
2023-03-29T11:58:38.236Z,4.37
2023-03-29T12:01:13.712Z,4.77
2023-03-29T12:03:48.182Z,5.37
2023-03-29T12:06:22.713Z,5.30
2023-03-29T12:08:57.439Z,5.07
2023-03-29T12:11:34.692Z,4.63
2023-03-29T12:14:06.400Z,4.40
2023-03-29T12:16:41.037Z,5.47
2023-03-29T12:19:18.667Z,4.63
2023-03-29T12:21:48.465Z,5.33
2023-03-29T12:24:21.685Z,4.90
2023-03-29T12:27:17.148Z,4.77
2023-03-29T12:29:58.930Z,5.43
2023-03-29T12:32:40.428Z,4.73
2023-03-29T12:35:35.538Z,4.80
2023-03-29T12:38:25.107Z,4.70
2023-03-29T12:41:37.868Z,4.80
2023-03-29T12:44:42.897Z,5.10
2023-03-29T12:47:24.922Z,5.30
2023-03-29T12:49:57.336Z,5.50
2023-03-29T12:52:31.133Z,4.17
2023-03-29T12:55:02.869Z,5.13
2023-03-29T12:57:41.955Z,5.20
2023-03-29T13:00:28.904Z,5.00
2023-03-29T13:03:05.063Z,5.30
2023-03-29T13:05:36.206Z,4.40
2023-03-29T13:08:28.550Z,4.90
2023-03-29T13:10:57.805Z,4.63
2023-03-29T13:13:29.417Z,4.63
2023-03-29T13:16:15.082Z,5.00
2023-03-29T13:19:01.322Z,5.07
2023-03-29T13:21:38.298Z,4.67
2023-03-29T13:24:28.701Z,4.67
2023-03-29T13:27:04.320Z,4.97
2023-03-29T13:30:01.479Z,5.10
2023-03-29T13:32:47.178Z,5.80
2023-03-29T13:35:28.552Z,4.67
2023-03-29T13:38:10.584Z,6.17
2023-03-29T13:40:57.626Z,6.13
2023-03-29T13:43:37.656Z,5.63
2023-03-29T13:46:19.878Z,5.17
2023-03-29T13:49:00.640Z,5.33
2023-03-29T13:51:35.856Z,6.53
2023-03-29T13:54:13.041Z,5.53
2023-03-29T13:56:51.464Z,4.93
2023-03-29T13:59:26.340Z,6.00
2023-03-29T14:01:57.978Z,4.83
2023-03-29T14:04:31.453Z,5.57
2023-03-29T14:07:00.785Z,4.67
2023-03-29T14:09:32.550Z,5.87
2023-03-29T14:12:01.821Z,5.27
2023-03-29T14:14:33.496Z,5.43
2023-03-29T14:17:02.704Z,5.70
2023-03-29T14:19:36.317Z,4.93
2023-03-29T14:22:10.304Z,4.63
2023-03-29T14:24:41.032Z,5.93
2023-03-29T14:27:12.830Z,5.87
2023-03-29T14:29:41.647Z,9.00
2023-03-29T14:32:11.901Z,6.73
2023-03-29T14:34:42.485Z,5.40
2023-03-29T14:37:13.308Z,4.67
2023-03-29T14:39:42.371Z,5.30
2023-03-29T14:42:20.827Z,5.27
2023-03-29T14:44:58.017Z,4.03
2023-03-29T14:47:30.413Z,4.43
2023-03-29T14:50:01.804Z,4.83
2023-03-29T14:52:32.145Z,4.93
2023-03-29T14:55:04.171Z,5.03
2023-03-29T14:57:36.708Z,4.10
2023-03-29T15:00:17.927Z,4.53
2023-03-29T15:02:51.210Z,3.83
2023-03-29T15:05:31.407Z,3.73
2023-03-29T15:08:00.133Z,4.50
2023-03-29T15:10:29.158Z,4.37
2023-03-29T15:12:57.709Z,3.87
2023-03-29T15:15:27.349Z,4.87
2023-03-29T15:17:58.361Z,3.80
2023-03-29T15:20:30.652Z,4.70
2023-03-29T15:23:02.236Z,4.70
2023-03-29T15:25:35.142Z,5.17
2023-03-29T15:28:03.599Z,15.77
2023-03-29T15:30:39.154Z,19.93
2023-03-29T15:33:21.965Z,37.22
2023-03-29T15:35:54.698Z,27.47
2023-03-29T15:38:30.192Z,9.43
2023-03-29T15:41:06.505Z,7.20
2023-03-29T15:43:35.272Z,6.53
2023-03-29T15:46:04.353Z,6.30
2023-03-29T15:48:33.652Z,4.47
2023-03-29T15:51:06.480Z,3.87
2023-03-29T15:53:36.283Z,4.37
2023-03-29T15:56:08.063Z,4.40
2023-03-29T15:58:38.144Z,4.37
2023-03-29T16:01:19.182Z,4.40
2023-03-29T16:03:48.153Z,3.93
2023-03-29T16:06:18.489Z,4.43
2023-03-29T16:08:47.002Z,3.07
2023-03-29T16:11:15.799Z,4.43
2023-03-29T16:13:44.264Z,3.23
2023-03-29T16:16:13.181Z,3.73
2023-03-29T16:18:41.608Z,3.23
2023-03-29T16:21:14.343Z,3.93
2023-03-29T16:23:44.223Z,3.50
2023-03-29T16:26:13.729Z,4.27
2023-03-29T16:28:42.491Z,8.20
2023-03-29T16:31:12.602Z,6.47
2023-03-29T16:33:41.214Z,4.77
2023-03-29T16:36:11.644Z,6.57
2023-03-29T16:38:40.666Z,5.90
2023-03-29T16:41:14.599Z,4.80
2023-03-29T16:43:42.988Z,5.23
2023-03-29T16:46:12.860Z,4.07
2023-03-29T16:48:42.217Z,6.70
2023-03-29T16:51:11.724Z,5.13
2023-03-29T16:53:40.631Z,4.70
2023-03-29T16:56:11.826Z,4.10
2023-03-29T16:58:40.920Z,4.73
2023-03-29T17:01:10.906Z,5.23
2023-03-29T17:03:40.464Z,4.47
2023-03-29T17:06:10.837Z,5.07
2023-03-29T17:08:39.802Z,5.07
2023-03-29T17:11:11.462Z,5.03
2023-03-29T17:13:40.280Z,6.30
2023-03-29T17:16:09.479Z,5.50
2023-03-29T17:18:38.067Z,5.57
2023-03-29T17:21:07.851Z,5.63
2023-03-29T17:23:36.268Z,5.43
2023-03-29T17:26:06.969Z,5.57
2023-03-29T17:28:37.003Z,6.70
2023-03-29T17:31:08.121Z,6.23
2023-03-29T17:33:36.938Z,6.07
2023-03-29T17:36:07.885Z,6.70
2023-03-29T17:38:38.056Z,6.37
2023-03-29T17:41:08.294Z,7.33
2023-03-29T17:43:38.098Z,7.47
2023-03-29T17:46:08.093Z,6.37
2023-03-29T17:48:36.545Z,4.90
2023-03-29T17:51:05.562Z,5.83
2023-03-29T17:53:34.320Z,6.40
2023-03-29T17:56:03.522Z,7.93
2023-03-29T17:58:32.049Z,6.93
2023-03-29T18:01:08.197Z,5.60
2023-03-29T18:03:36.793Z,6.80
2023-03-29T18:06:06.945Z,7.17
2023-03-29T18:08:35.776Z,6.77
2023-03-29T18:11:09.936Z,7.33
2023-03-29T18:13:38.644Z,9.03
2023-03-29T18:16:10.180Z,7.43
2023-03-29T18:18:38.920Z,7.97
2023-03-29T18:21:10.111Z,8.07
2023-03-29T18:23:42.180Z,8.67
2023-03-29T18:26:10.925Z,10.27
2023-03-29T18:28:39.505Z,9.33
2023-03-29T18:31:10.585Z,9.53
2023-03-29T18:33:39.086Z,8.23
2023-03-29T18:36:12.610Z,10.03
2023-03-29T18:38:43.136Z,10.07
2023-03-29T18:41:13.218Z,10.83
2023-03-29T18:43:43.241Z,11.87
2023-03-29T18:46:13.631Z,10.50
2023-03-29T18:48:42.659Z,9.50
2023-03-29T18:51:13.378Z,10.33
2023-03-29T18:53:43.727Z,8.20
2023-03-29T18:56:12.726Z,9.67
2023-03-29T18:58:41.304Z,8.30
2023-03-29T19:01:10.894Z,6.93
2023-03-29T19:03:41.803Z,8.63
2023-03-29T19:06:11.858Z,7.90
2023-03-29T19:08:41.372Z,8.33
2023-03-29T19:11:14.265Z,7.83
2023-03-29T19:13:42.871Z,8.70
2023-03-29T19:16:12.197Z,7.80
2023-03-29T19:18:42.175Z,8.23
2023-03-29T19:21:13.177Z,6.47
2023-03-29T19:23:41.880Z,7.60
2023-03-29T19:26:11.596Z,8.13
2023-03-29T19:28:40.449Z,6.87
2023-03-29T19:31:12.173Z,8.50
2023-03-29T19:33:42.090Z,8.17
2023-03-29T19:36:10.957Z,8.37
2023-03-29T19:38:39.571Z,8.00
2023-03-29T19:41:08.918Z,7.43
2023-03-29T19:43:37.601Z,6.53
2023-03-29T19:46:08.377Z,7.97
2023-03-29T19:48:42.423Z,7.27
2023-03-29T19:51:13.321Z,7.07
2023-03-29T19:53:43.787Z,7.23
2023-03-29T19:56:14.392Z,8.23
2023-03-29T19:58:43.149Z,7.63
2023-03-29T20:01:11.951Z,8.20
2023-03-29T20:03:42.987Z,8.10
2023-03-29T20:06:13.962Z,7.10
2023-03-29T20:08:42.512Z,7.70
2023-03-29T20:11:13.675Z,8.17
2023-03-29T20:13:44.548Z,6.77
2023-03-29T20:16:16.002Z,8.03
2023-03-29T20:18:45.650Z,8.30
2023-03-29T20:21:18.362Z,6.83
2023-03-29T20:23:49.369Z,7.80
2023-03-29T20:26:18.201Z,7.67
2023-03-29T20:28:46.856Z,7.73
2023-03-29T20:31:15.850Z,7.60
2023-03-29T20:33:44.560Z,9.17
2023-03-29T20:36:18.699Z,8.40
2023-03-29T20:38:47.375Z,9.30
2023-03-29T20:41:22.122Z,7.20
2023-03-29T20:43:58.196Z,7.93
2023-03-29T20:46:33.257Z,7.80
2023-03-29T20:49:02.124Z,8.33
2023-03-29T20:51:32.531Z,7.30
2023-03-29T20:54:04.715Z,7.83
2023-03-29T20:56:35.563Z,8.57
2023-03-29T20:59:05.815Z,8.13
2023-03-29T21:01:35.007Z,8.37
2023-03-29T21:04:03.588Z,7.77
2023-03-29T21:06:33.822Z,8.17
2023-03-29T21:09:02.305Z,9.57
2023-03-29T21:11:30.971Z,9.10
2023-03-29T21:13:59.496Z,7.57
2023-03-29T21:16:29.592Z,8.70
2023-03-29T21:18:58.019Z,7.67
2023-03-29T21:21:27.394Z,7.43
2023-03-29T21:23:57.165Z,8.37
2023-03-29T21:26:26.106Z,7.20
2023-03-29T21:28:54.540Z,7.77
2023-03-29T21:31:23.265Z,7.63
2023-03-29T21:33:53.034Z,7.63
2023-03-29T21:36:22.303Z,7.77
2023-03-29T21:38:51.084Z,9.03
2023-03-29T21:41:21.971Z,8.40
2023-03-29T21:43:50.359Z,8.63
2023-03-29T21:46:19.013Z,7.93
2023-03-29T21:48:47.411Z,8.63
2023-03-29T21:51:16.280Z,8.43
2023-03-29T21:53:44.681Z,9.23
2023-03-29T21:56:13.371Z,9.87
2023-03-29T21:58:43.632Z,9.47
2023-03-29T22:01:12.601Z,8.70
2023-03-29T22:03:41.017Z,8.90
2023-03-29T22:06:10.520Z,8.70
2023-03-29T22:08:40.550Z,8.67
2023-03-29T22:11:11.497Z,9.23
2023-03-29T22:13:39.946Z,9.90
2023-03-29T22:16:13.827Z,9.90
2023-03-29T22:18:46.828Z,10.03
2023-03-29T22:21:18.347Z,9.53
2023-03-29T22:23:48.007Z,9.33
2023-03-29T22:26:18.352Z,11.23
2023-03-29T22:28:47.221Z,11.03
2023-03-29T22:31:19.445Z,10.93
2023-03-29T22:33:48.415Z,10.87
2023-03-29T22:36:18.893Z,10.93
2023-03-29T22:38:47.964Z,10.20
2023-03-29T22:41:18.151Z,11.20
2023-03-29T22:43:47.374Z,10.57
2023-03-29T22:46:17.549Z,11.60
2023-03-29T22:48:46.362Z,11.50
2023-03-29T22:51:16.207Z,11.00
2023-03-29T22:53:44.807Z,11.97
2023-03-29T22:56:13.899Z,11.43
2023-03-29T22:58:42.562Z,10.20
2023-03-29T23:01:11.839Z,11.17
2023-03-29T23:03:41.718Z,10.47
2023-03-29T23:06:10.602Z,10.00
2023-03-29T23:08:39.019Z,10.90
2023-03-29T23:11:08.306Z,9.67
2023-03-29T23:13:36.804Z,9.67
2023-03-29T23:16:05.954Z,10.07
2023-03-29T23:18:37.429Z,9.70
2023-03-29T23:21:08.965Z,9.00
2023-03-29T23:23:37.518Z,9.43
2023-03-29T23:26:08.349Z,9.00
2023-03-29T23:28:36.926Z,9.10
2023-03-29T23:31:09.579Z,10.23
2023-03-29T23:33:40.291Z,9.77
2023-03-29T23:36:13.650Z,9.53
2023-03-29T23:38:43.361Z,9.47
2023-03-29T23:41:13.135Z,9.10
2023-03-29T23:43:43.011Z,9.40
2023-03-29T23:46:13.542Z,10.33
2023-03-29T23:48:44.622Z,8.90
2023-03-29T23:51:14.783Z,8.63
2023-03-29T23:53:43.224Z,8.27
2023-03-29T23:56:11.979Z,8.40
2023-03-29T23:58:40.513Z,8.80
